sensor_id;sensor_type;location;lat;lon;timestamp;pressure;altitude;pressure_sealevel;temperature;humidity
34073;BME280;20346;52.702;16.886;2022-11-25T00:02:14;100915.26;;;3.05;85.94
34073;BME280;20346;52.702;16.886;2022-11-25T00:04:59;100913.09;;;3.03;85.92
34073;BME280;20346;52.702;16.886;2022-11-25T00:07:44;100918.20;;;3.03;85.95
34073;BME280;20346;52.702;16.886;2022-11-25T00:10:29;100917.31;;;3.01;85.94
34073;BME280;20346;52.702;16.886;2022-11-25T00:13:13;100920.28;;;3.00;85.95
34073;BME280;20346;52.702;16.886;2022-11-25T00:16:10;100917.31;;;3.01;85.95
34073;BME280;20346;52.702;16.886;2022-11-25T00:18:54;100921.55;;;3.00;85.97
34073;BME280;20346;52.702;16.886;2022-11-25T00:21:40;100916.48;;;3.02;85.99
34073;BME280;20346;52.702;16.886;2022-11-25T00:24:25;100925.39;;;3.00;85.95
34073;BME280;20346;52.702;16.886;2022-11-25T00:27:10;100919.83;;;2.99;85.97
34073;BME280;20346;52.702;16.886;2022-11-25T00:29:55;100917.31;;;3.01;86.04
34073;BME280;20346;52.702;16.886;2022-11-25T00:32:40;100919.00;;;3.00;85.98
34073;BME280;20346;52.702;16.886;2022-11-25T00:35:24;100920.28;;;3.00;85.98
34073;BME280;20346;52.702;16.886;2022-11-25T00:38:09;100918.55;;;2.99;85.99
34073;BME280;20346;52.702;16.886;2022-11-25T00:40:54;100924.05;;;2.97;85.98
34073;BME280;20346;52.702;16.886;2022-11-25T00:43:40;100917.66;;;2.97;86.00
34073;BME280;20346;52.702;16.886;2022-11-25T00:46:43;100915.11;;;2.97;86.01
34073;BME280;20346;52.702;16.886;2022-11-25T00:49:28;100898.30;;;2.86;86.07
34073;BME280;20346;52.702;16.886;2022-11-25T00:52:15;100921.08;;;2.97;86.05
34073;BME280;20346;52.702;16.886;2022-11-25T00:55:02;100921.50;;;2.97;86.03
34073;BME280;20346;52.702;16.886;2022-11-25T00:57:47;100930.44;;;2.97;86.02
34073;BME280;20346;52.702;16.886;2022-11-25T01:00:32;100928.71;;;2.96;86.04
34073;BME280;20346;52.702;16.886;2022-11-25T01:03:17;100927.81;;;2.94;86.01
34073;BME280;20346;52.702;16.886;2022-11-25T01:06:04;100936.31;;;2.93;86.01
34073;BME280;20346;52.702;16.886;2022-11-25T01:08:52;100930.79;;;2.93;86.06
34073;BME280;20346;52.702;16.886;2022-11-25T01:11:37;100934.20;;;2.94;86.04
34073;BME280;20346;52.702;16.886;2022-11-25T01:14:23;100932.90;;;2.92;86.04
34073;BME280;20346;52.702;16.886;2022-11-25T01:17:08;100930.34;;;2.92;86.03
34073;BME280;20346;52.702;16.886;2022-11-25T01:19:53;100931.59;;;2.91;86.05
34073;BME280;20346;52.702;16.886;2022-11-25T01:22:38;100933.31;;;2.92;86.08
34073;BME280;20346;52.702;16.886;2022-11-25T01:25:23;100939.70;;;2.92;86.07
34073;BME280;20346;52.702;16.886;2022-11-25T01:28:08;100941.39;;;2.91;86.04
34073;BME280;20346;52.702;16.886;2022-11-25T01:31:13;100944.74;;;2.89;86.06
34073;BME280;20346;52.702;16.886;2022-11-25T01:34:06;100948.06;;;2.85;86.04
34073;BME280;20346;52.702;16.886;2022-11-25T01:36:51;100958.69;;;2.84;86.07
34073;BME280;20346;52.702;16.886;2022-11-25T01:39:36;100956.97;;;2.83;86.08
34073;BME280;20346;52.702;16.886;2022-11-25T01:42:26;100956.94;;;2.82;86.05
34073;BME280;20346;52.702;16.886;2022-11-25T01:48:21;100953.48;;;2.80;86.12
34073;BME280;20346;52.702;16.886;2022-11-25T01:51:34;100954.34;;;2.80;86.11
34073;BME280;20346;52.702;16.886;2022-11-25T01:54:25;100944.55;;;2.80;86.09
34073;BME280;20346;52.702;16.886;2022-11-25T01:57:17;100952.56;;;2.76;86.02
34073;BME280;20346;52.702;16.886;2022-11-25T02:00:05;100952.95;;;2.74;86.06
34073;BME280;20346;52.702;16.886;2022-11-25T02:02:52;100960.61;;;2.74;86.09
34073;BME280;20346;52.702;16.886;2022-11-25T02:05:58;100960.57;;;2.73;86.05
34073;BME280;20346;52.702;16.886;2022-11-25T02:08:58;100966.06;;;2.71;86.09
34073;BME280;20346;52.702;16.886;2022-11-25T02:11:46;100962.64;;;2.70;86.09
34073;BME280;20346;52.702;16.886;2022-11-25T02:14:31;100966.89;;;2.70;86.09
34073;BME280;20346;52.702;16.886;2022-11-25T02:17:16;100968.16;;;2.70;86.12
34073;BME280;20346;52.702;16.886;2022-11-25T02:26:03;100966.86;;;2.68;86.10
34073;BME280;20346;52.702;16.886;2022-11-25T02:28:48;100960.85;;;2.66;86.13
34073;BME280;20346;52.702;16.886;2022-11-25T02:31:33;100970.23;;;2.67;86.12
34073;BME280;20346;52.702;16.886;2022-11-25T02:36:47;100956.26;;;2.70;86.14
34073;BME280;20346;52.702;16.886;2022-11-25T02:39:32;100943.27;;;2.58;86.29
34073;BME280;20346;52.702;16.886;2022-11-25T02:42:19;100943.27;;;2.58;86.29
34073;BME280;20346;52.702;16.886;2022-11-25T02:45:08;100953.20;;;2.66;86.08
34073;BME280;20346;52.702;16.886;2022-11-25T02:47:55;100958.65;;;2.62;86.10
34073;BME280;20346;52.702;16.886;2022-11-25T02:50:41;100955.27;;;2.63;86.17
34073;BME280;20346;52.702;16.886;2022-11-25T02:53:26;100958.69;;;2.64;86.21
34073;BME280;20346;52.702;16.886;2022-11-25T02:56:13;100957.82;;;2.63;86.20
34073;BME280;20346;52.702;16.886;2022-11-25T02:58:59;100965.48;;;2.63;86.22
34073;BME280;20346;52.702;16.886;2022-11-25T03:01:45;100964.23;;;2.65;86.22
34073;BME280;20346;52.702;16.886;2022-11-25T03:04:30;100946.30;;;2.62;86.26
34073;BME280;20346;52.702;16.886;2022-11-25T03:07:15;100957.88;;;2.66;86.26
34073;BME280;20346;52.702;16.886;2022-11-25T03:10:00;100956.98;;;2.64;86.17
34073;BME280;20346;52.702;16.886;2022-11-25T03:12:45;100950.16;;;2.63;86.24
34073;BME280;20346;52.702;16.886;2022-11-25T03:15:30;100952.30;;;2.64;86.27
34073;BME280;20346;52.702;16.886;2022-11-25T03:18:15;100955.30;;;2.65;86.26
34073;BME280;20346;52.702;16.886;2022-11-25T03:21:00;100956.55;;;2.63;86.23
34073;BME280;20346;52.702;16.886;2022-11-25T03:23:45;100958.69;;;2.64;86.29
34073;BME280;20346;52.702;16.886;2022-11-25T03:26:30;100960.78;;;2.63;86.25
34073;BME280;20346;52.702;16.886;2022-11-25T03:29:15;100962.89;;;2.62;86.25
34073;BME280;20346;52.702;16.886;2022-11-25T03:32:01;100965.06;;;2.64;86.25
34073;BME280;20346;52.702;16.886;2022-11-25T03:34:46;100964.65;;;2.64;86.24
34073;BME280;20346;52.702;16.886;2022-11-25T03:37:31;100963.38;;;2.64;86.30
34073;BME280;20346;52.702;16.886;2022-11-25T03:40:16;100963.38;;;2.64;86.29
34073;BME280;20346;52.702;16.886;2022-11-25T03:43:01;100963.78;;;2.64;86.27
34073;BME280;20346;52.702;16.886;2022-11-25T03:45:49;100973.17;;;2.65;86.25
34073;BME280;20346;52.702;16.886;2022-11-25T03:48:34;100969.72;;;2.63;86.24
34073;BME280;20346;52.702;16.886;2022-11-25T03:51:20;100976.10;;;2.63;86.26
34073;BME280;20346;52.702;16.886;2022-11-25T03:54:05;100976.52;;;2.62;86.25
34073;BME280;20346;52.702;16.886;2022-11-25T03:56:50;100979.04;;;2.61;86.29
34073;BME280;20346;52.702;16.886;2022-11-25T03:59:35;100977.34;;;2.60;86.31
34073;BME280;20346;52.702;16.886;2022-11-25T04:02:20;100973.93;;;2.61;86.26
34073;BME280;20346;52.702;16.886;2022-11-25T04:05:06;100967.97;;;2.60;86.31
34073;BME280;20346;52.702;16.886;2022-11-25T04:07:51;100964.10;;;2.57;86.23
34073;BME280;20346;52.702;16.886;2022-11-25T04:10:36;100962.83;;;2.57;86.38
34073;BME280;20346;52.702;16.886;2022-11-25T04:13:21;100964.58;;;2.60;86.36
34073;BME280;20346;52.702;16.886;2022-11-25T04:16:22;100971.38;;;2.59;86.36
34073;BME280;20346;52.702;16.886;2022-11-25T04:19:05;100976.48;;;2.59;86.36
34073;BME280;20346;52.702;16.886;2022-11-25T04:21:50;100981.14;;;2.58;86.37
34073;BME280;20346;52.702;16.886;2022-11-25T04:24:36;100986.66;;;2.58;86.37
34073;BME280;20346;52.702;16.886;2022-11-25T04:27:21;100991.31;;;2.57;86.35
34073;BME280;20346;52.702;16.886;2022-11-25T04:30:07;100992.56;;;2.55;86.35
34073;BME280;20346;52.702;16.886;2022-11-25T04:32:52;101003.14;;;2.53;86.25
34073;BME280;20346;52.702;16.886;2022-11-25T04:35:37;101003.14;;;2.53;86.25
34073;BME280;20346;52.702;16.886;2022-11-25T04:38:22;101003.56;;;2.53;86.36
34073;BME280;20346;52.702;16.886;2022-11-25T04:41:08;101006.11;;;2.53;86.39
34073;BME280;20346;52.702;16.886;2022-11-25T04:43:52;101010.77;;;2.52;86.35
34073;BME280;20346;52.702;16.886;2022-11-25T04:46:40;101000.97;;;2.51;86.37
34073;BME280;20346;52.702;16.886;2022-11-25T04:49:25;101006.45;;;2.49;86.33
34073;BME280;20346;52.702;16.886;2022-11-25T04:52:11;101004.32;;;2.49;86.35
34073;BME280;20346;52.702;16.886;2022-11-25T04:54:56;101000.91;;;2.48;86.35
34073;BME280;20346;52.702;16.886;2022-11-25T04:57:41;101006.80;;;2.46;86.33
34073;BME280;20346;52.702;16.886;2022-11-25T05:00:26;101000.34;;;2.43;86.33
34073;BME280;20346;52.702;16.886;2022-11-25T05:03:11;101004.59;;;2.42;86.38
34073;BME280;20346;52.702;16.886;2022-11-25T05:05:56;101007.59;;;2.43;86.42
34073;BME280;20346;52.702;16.886;2022-11-25T05:08:41;101006.31;;;2.43;86.40
34073;BME280;20346;52.702;16.886;2022-11-25T05:11:27;101011.38;;;2.42;86.34
34073;BME280;20346;52.702;16.886;2022-11-25T05:14:12;101009.17;;;2.38;86.33
34073;BME280;20346;52.702;16.886;2022-11-25T05:16:57;101006.20;;;2.39;86.37
34073;BME280;20346;52.702;16.886;2022-11-25T05:19:42;101006.20;;;2.39;86.39
34073;BME280;20346;52.702;16.886;2022-11-25T05:22:30;100999.83;;;2.39;86.40
34073;BME280;20346;52.702;16.886;2022-11-25T05:25:16;101003.20;;;2.38;86.37
34073;BME280;20346;52.702;16.886;2022-11-25T05:28:03;101004.03;;;2.37;86.38
34073;BME280;20346;52.702;16.886;2022-11-25T05:30:48;101005.27;;;2.35;86.34
34073;BME280;20346;52.702;16.886;2022-11-25T05:33:33;101009.92;;;2.34;86.40
34073;BME280;20346;52.702;16.886;2022-11-25T05:36:18;101015.92;;;2.36;86.39
34073;BME280;20346;52.702;16.886;2022-11-25T05:39:03;101012.89;;;2.33;86.37
34073;BME280;20346;52.702;16.886;2022-11-25T05:41:48;101016.75;;;2.35;86.37
34073;BME280;20346;52.702;16.886;2022-11-25T05:44:33;101013.27;;;2.31;86.35
34073;BME280;20346;52.702;16.886;2022-11-25T05:47:18;101014.09;;;2.30;86.37
34073;BME280;20346;52.702;16.886;2022-11-25T05:50:05;101010.23;;;2.29;86.33
34073;BME280;20346;52.702;16.886;2022-11-25T05:52:51;101016.98;;;2.27;86.32
34073;BME280;20346;52.702;16.886;2022-11-25T05:55:36;101018.67;;;2.26;86.38
34073;BME280;20346;52.702;16.886;2022-11-25T05:58:22;101011.02;;;2.26;86.38
34073;BME280;20346;52.702;16.886;2022-11-25T06:01:09;101020.77;;;2.25;86.33
34073;BME280;20346;52.702;16.886;2022-11-25T06:04:00;101019.42;;;2.22;86.36
34073;BME280;20346;52.702;16.886;2022-11-25T06:06:46;101022.42;;;2.23;86.36
34073;BME280;20346;52.702;16.886;2022-11-25T06:09:30;101020.70;;;2.22;86.36
34073;BME280;20346;52.702;16.886;2022-11-25T06:12:15;101025.80;;;2.22;86.37
34073;BME280;20346;52.702;16.886;2022-11-25T06:15:00;101018.15;;;2.22;86.36
34073;BME280;20346;52.702;16.886;2022-11-25T06:17:45;101023.63;;;2.20;86.34
34073;BME280;20346;52.702;16.886;2022-11-25T06:20:30;101027.08;;;2.22;86.34
34073;BME280;20346;52.702;16.886;2022-11-25T06:23:15;101028.35;;;2.22;86.37
34073;BME280;20346;52.702;16.886;2022-11-25T06:26:12;101036.01;;;2.22;86.33
34073;BME280;20346;52.702;16.886;2022-11-25T06:28:59;101036.83;;;2.21;86.30
34073;BME280;20346;52.702;16.886;2022-11-25T06:31:44;101035.11;;;2.20;86.32
34073;BME280;20346;52.702;16.886;2022-11-25T06:34:29;101036.38;;;2.20;86.37
34073;BME280;20346;52.702;16.886;2022-11-25T06:37:14;101047.86;;;2.20;86.33
34073;BME280;20346;52.702;16.886;2022-11-25T06:39:59;101050.37;;;2.19;86.31
34073;BME280;20346;52.702;16.886;2022-11-25T06:42:44;101049.47;;;2.17;86.35
34073;BME280;20346;52.702;16.886;2022-11-25T06:45:29;101052.92;;;2.19;86.39
34073;BME280;20346;52.702;16.886;2022-11-25T06:48:15;101049.96;;;2.19;86.37
34073;BME280;20346;52.702;16.886;2022-11-25T06:51:02;101047.86;;;2.20;86.33
34073;BME280;20346;52.702;16.886;2022-11-25T06:53:49;101049.09;;;2.19;86.35
34073;BME280;20346;52.702;16.886;2022-11-25T06:56:33;101052.47;;;2.18;86.32
34073;BME280;20346;52.702;16.886;2022-11-25T06:59:20;101055.02;;;2.18;86.38
34073;BME280;20346;52.702;16.886;2022-11-25T07:02:05;101057.13;;;2.17;86.32
34073;BME280;20346;52.702;16.886;2022-11-25T07:04:50;101058.40;;;2.17;86.34
34073;BME280;20346;52.702;16.886;2022-11-25T07:07:35;101052.47;;;2.18;86.34
34073;BME280;20346;52.702;16.886;2022-11-25T07:10:20;101054.98;;;2.16;86.23
34073;BME280;20346;52.702;16.886;2022-11-25T07:13:05;101054.98;;;2.16;86.23
34073;BME280;20346;52.702;16.886;2022-11-25T07:15:50;101064.78;;;2.17;86.34
34073;BME280;20346;52.702;16.886;2022-11-25T07:18:36;101069.92;;;2.18;86.35
34073;BME280;20346;52.702;16.886;2022-11-25T07:21:23;101075.44;;;2.18;86.33
34073;BME280;20346;52.702;16.886;2022-11-25T07:24:09;101076.26;;;2.17;86.28
34073;BME280;20346;52.702;16.886;2022-11-25T07:26:55;101081.36;;;2.17;86.31
34073;BME280;20346;52.702;16.886;2022-11-25T07:29:40;101078.39;;;2.17;86.35
34073;BME280;20346;52.702;16.886;2022-11-25T07:32:25;101077.53;;;2.17;86.30
34073;BME280;20346;52.702;16.886;2022-11-25T07:35:10;101073.18;;;2.13;86.18
34073;BME280;20346;52.702;16.886;2022-11-25T07:37:55;101085.03;;;2.11;86.25
34073;BME280;20346;52.702;16.886;2022-11-25T07:40:40;101082.06;;;2.11;86.32
34073;BME280;20346;52.702;16.886;2022-11-25T07:43:25;101093.59;;;2.13;86.38
34073;BME280;20346;52.702;16.886;2022-11-25T07:46:12;101101.73;;;2.15;86.35
34073;BME280;20346;52.702;16.886;2022-11-25T07:49:01;101106.01;;;2.16;86.36
34073;BME280;20346;52.702;16.886;2022-11-25T07:51:54;101100.53;;;2.18;86.43
34073;BME280;20346;52.702;16.886;2022-11-25T07:54:41;101100.23;;;2.23;86.47
34073;BME280;20346;52.702;16.886;2022-11-25T07:57:26;101104.59;;;2.27;86.47
34073;BME280;20346;52.702;16.886;2022-11-25T08:00:11;101110.23;;;2.31;86.49
34073;BME280;20346;52.702;16.886;2022-11-25T08:02:56;101109.86;;;2.33;86.46
34073;BME280;20346;52.702;16.886;2022-11-25T08:05:41;101113.31;;;2.36;86.49
34073;BME280;20346;52.702;16.886;2022-11-25T08:08:26;101115.08;;;2.38;86.40
34073;BME280;20346;52.702;16.886;2022-11-25T08:11:18;101115.98;;;2.40;86.45
34073;BME280;20346;52.702;16.886;2022-11-25T08:14:00;101117.29;;;2.42;86.42
34073;BME280;20346;52.702;16.886;2022-11-25T08:16:46;101121.57;;;2.43;86.43
34073;BME280;20346;52.702;16.886;2022-11-25T08:19:32;101113.99;;;2.46;86.44
34073;BME280;20346;52.702;16.886;2022-11-25T08:22:17;101109.75;;;2.46;86.40
34073;BME280;20346;52.702;16.886;2022-11-25T08:25:01;101105.96;;;2.48;86.42
34073;BME280;20346;52.702;16.886;2022-11-25T08:27:46;101112.38;;;2.49;86.44
34073;BME280;20346;52.702;16.886;2022-11-25T08:30:31;101116.70;;;2.52;86.47
34073;BME280;20346;52.702;16.886;2022-11-25T08:33:16;101118.84;;;2.52;86.43
34073;BME280;20346;52.702;16.886;2022-11-25T08:36:01;101116.77;;;2.55;86.46
34073;BME280;20346;52.702;16.886;2022-11-25T08:38:48;101110.39;;;2.55;86.40
34073;BME280;20346;52.702;16.886;2022-11-25T08:41:36;101109.11;;;2.55;86.43
34073;BME280;20346;52.702;16.886;2022-11-25T08:44:21;101106.64;;;2.58;86.51
34073;BME280;20346;52.702;16.886;2022-11-25T08:47:07;101109.69;;;2.62;86.54
34073;BME280;20346;52.702;16.886;2022-11-25T08:49:52;101116.10;;;2.63;86.52
34073;BME280;20346;52.702;16.886;2022-11-25T08:52:37;101113.62;;;2.66;86.53
34073;BME280;20346;52.702;16.886;2022-11-25T08:55:22;101119.66;;;2.70;86.55
34073;BME280;20346;52.702;16.886;2022-11-25T08:58:09;101117.98;;;2.71;86.50
34073;BME280;20346;52.702;16.886;2022-11-25T09:00:56;101116.33;;;2.73;86.55
34073;BME280;20346;52.702;16.886;2022-11-25T09:03:43;101133.03;;;2.77;86.58
34073;BME280;20346;52.702;16.886;2022-11-25T09:06:29;101126.27;;;2.79;86.57
34073;BME280;20346;52.702;16.886;2022-11-25T09:09:14;101123.83;;;2.84;86.54
34073;BME280;20346;52.702;16.886;2022-11-25T09:11:59;101126.38;;;2.84;86.47
34073;BME280;20346;52.702;16.886;2022-11-25T09:14:44;101128.11;;;2.85;86.51
34073;BME280;20346;52.702;16.886;2022-11-25T09:17:29;101122.66;;;2.88;86.57
34073;BME280;20346;52.702;16.886;2022-11-25T09:20:14;101119.34;;;2.92;86.50
34073;BME280;20346;52.702;16.886;2022-11-25T09:23:00;101128.29;;;2.92;86.50
34073;BME280;20346;52.702;16.886;2022-11-25T09:25:51;101126.63;;;2.94;86.56
34073;BME280;20346;52.702;16.886;2022-11-25T09:28:40;101131.36;;;2.96;86.58
34073;BME280;20346;52.702;16.886;2022-11-25T09:31:25;101120.31;;;2.97;86.54
34073;BME280;20346;52.702;16.886;2022-11-25T09:34:10;101125.46;;;2.99;86.53
34073;BME280;20346;52.702;16.886;2022-11-25T09:36:55;101111.83;;;2.98;86.47
34073;BME280;20346;52.702;16.886;2022-11-25T09:39:40;101119.91;;;2.98;86.53
34073;BME280;20346;52.702;16.886;2022-11-25T09:42:33;101124.70;;;3.03;86.58
34073;BME280;20346;52.702;16.886;2022-11-25T09:45:54;101127.36;;;3.08;86.58
34073;BME280;20346;52.702;16.886;2022-11-25T09:49:01;101126.98;;;3.10;86.57
34073;BME280;20346;52.702;16.886;2022-11-25T09:52:06;101124.46;;;3.11;86.52
34073;BME280;20346;52.702;16.886;2022-11-25T09:55:10;101136.27;;;3.06;86.44
34073;BME280;20346;52.702;16.886;2022-11-25T10:01:20;101129.09;;;3.09;86.52
34073;BME280;20346;52.702;16.886;2022-11-25T10:04:16;101133.27;;;3.05;86.45
34073;BME280;20346;52.702;16.886;2022-11-25T10:07:00;101139.23;;;3.06;86.53
34073;BME280;20346;52.702;16.886;2022-11-25T10:09:46;101137.17;;;3.08;86.60
34073;BME280;20346;52.702;16.886;2022-11-25T10:12:34;101135.96;;;3.11;86.63
34073;BME280;20346;52.702;16.886;2022-11-25T10:15:33;101141.11;;;3.14;86.61
34073;BME280;20346;52.702;16.886;2022-11-25T10:18:29;101146.70;;;3.17;86.61
34073;BME280;20346;52.702;16.886;2022-11-25T10:21:19;101151.44;;;3.19;86.59
34073;BME280;20346;52.702;16.886;2022-11-25T10:24:05;101153.64;;;3.22;86.61
34073;BME280;20346;52.702;16.886;2022-11-25T10:26:59;101154.09;;;3.23;86.57
34073;BME280;20346;52.702;16.886;2022-11-25T10:29:43;101153.20;;;3.21;86.47
34073;BME280;20346;52.702;16.886;2022-11-25T10:32:35;101150.16;;;3.19;86.42
34073;BME280;20346;52.702;16.886;2022-11-25T10:35:30;101149.30;;;3.18;86.44
34073;BME280;20346;52.702;16.886;2022-11-25T10:38:21;101150.98;;;3.18;86.44
34073;BME280;20346;52.702;16.886;2022-11-25T10:41:12;101155.23;;;3.17;86.48
34073;BME280;20346;52.702;16.886;2022-11-25T10:43:59;101158.20;;;3.17;86.47
34073;BME280;20346;52.702;16.886;2022-11-25T10:46:51;101147.56;;;3.17;86.50
34073;BME280;20346;52.702;16.886;2022-11-25T11:08:20;101161.95;;;3.51;86.61
34073;BME280;20346;52.702;16.886;2022-11-25T11:11:19;101163.23;;;3.51;86.55
34073;BME280;20346;52.702;16.886;2022-11-25T11:14:11;101164.96;;;3.52;86.52
34073;BME280;20346;52.702;16.886;2022-11-25T11:16:57;101158.56;;;3.52;86.54
34073;BME280;20346;52.702;16.886;2022-11-25T11:19:44;101160.70;;;3.53;86.58
34073;BME280;20346;52.702;16.886;2022-11-25T11:22:34;101159.02;;;3.53;86.55
34073;BME280;20346;52.702;16.886;2022-11-25T11:25:29;101162.44;;;3.54;86.54
34073;BME280;20346;52.702;16.886;2022-11-25T11:31:24;101156.91;;;3.54;86.56
34073;BME280;20346;52.702;16.886;2022-11-25T11:37:46;101154.38;;;3.56;86.54
34073;BME280;20346;52.702;16.886;2022-11-25T11:40:41;101157.39;;;3.57;86.56
34073;BME280;20346;52.702;16.886;2022-11-25T11:50:34;101169.34;;;3.58;86.55
34073;BME280;20346;52.702;16.886;2022-11-25T11:56:39;101175.80;;;3.61;86.52
34073;BME280;20346;52.702;16.886;2022-11-25T12:17:00;101156.23;;;4.07;86.62
34073;BME280;20346;52.702;16.886;2022-11-25T12:19:57;101156.17;;;4.04;86.39
34073;BME280;20346;52.702;16.886;2022-11-25T12:23:01;101159.03;;;3.97;86.32
34073;BME280;20346;52.702;16.886;2022-11-25T12:26:05;101157.27;;;3.94;86.40
34073;BME280;20346;52.702;16.886;2022-11-25T12:29:00;101163.61;;;3.91;86.39
34073;BME280;20346;52.702;16.886;2022-11-25T12:40:14;101160.93;;;3.85;86.45
34073;BME280;20346;52.702;16.886;2022-11-25T12:43:11;101157.48;;;3.83;86.42
34073;BME280;20346;52.702;16.886;2022-11-25T12:49:23;101153.87;;;3.74;86.28
34073;BME280;20346;52.702;16.886;2022-11-25T13:27:33;101167.48;;;3.51;86.14
34073;BME280;20346;52.702;16.886;2022-11-25T13:30:35;101166.52;;;3.46;86.12
34073;BME280;20346;52.702;16.886;2022-11-25T13:36:23;101179.30;;;3.46;86.28
34073;BME280;20346;52.702;16.886;2022-11-25T13:39:13;101172.94;;;3.47;86.28
34073;BME280;20346;52.702;16.886;2022-11-25T13:45:28;101178.12;;;3.50;86.23
34073;BME280;20346;52.702;16.886;2022-11-25T13:48:24;101182.83;;;3.51;86.23
34073;BME280;20346;52.702;16.886;2022-11-25T13:51:14;101186.21;;;3.50;86.19
34073;BME280;20346;52.702;16.886;2022-11-25T13:54:05;101185.34;;;3.49;86.21
34073;BME280;20346;52.702;16.886;2022-11-25T13:56:58;101188.31;;;3.49;86.20
34073;BME280;20346;52.702;16.886;2022-11-25T14:00:07;101187.03;;;3.49;86.20
34073;BME280;20346;52.702;16.886;2022-11-25T14:02:54;101186.24;;;3.51;86.24
34073;BME280;20346;52.702;16.886;2022-11-25T14:05:56;101183.62;;;3.48;86.19
34073;BME280;20346;52.702;16.886;2022-11-25T14:09:03;101189.14;;;3.48;86.23
34073;BME280;20346;52.702;16.886;2022-11-25T14:11:58;101189.98;;;3.47;86.18
34073;BME280;20346;52.702;16.886;2022-11-25T14:15:19;101192.02;;;3.43;86.16
34073;BME280;20346;52.702;16.886;2022-11-25T14:21:20;101199.65;;;3.41;86.22
34073;BME280;20346;52.702;16.886;2022-11-25T14:24:45;101207.73;;;3.41;86.20
34073;BME280;20346;52.702;16.886;2022-11-25T14:27:34;101213.67;;;3.40;86.24
34073;BME280;20346;52.702;16.886;2022-11-25T14:30:19;101219.27;;;3.42;86.27
34073;BME280;20346;52.702;16.886;2022-11-25T14:33:07;101212.47;;;3.43;86.26
34073;BME280;20346;52.702;16.886;2022-11-25T14:35:57;101218.38;;;3.40;86.22
34073;BME280;20346;52.702;16.886;2022-11-25T14:39:01;101215.41;;;3.41;86.25
34073;BME280;20346;52.702;16.886;2022-11-25T14:41:58;101216.64;;;3.39;86.22
34073;BME280;20346;52.702;16.886;2022-11-25T14:44:54;101217.09;;;3.40;86.21
34073;BME280;20346;52.702;16.886;2022-11-25T14:47:41;101213.23;;;3.39;86.19
34073;BME280;20346;52.702;16.886;2022-11-25T14:50:25;101210.22;;;3.38;86.21
34073;BME280;20346;52.702;16.886;2022-11-25T14:53:10;101215.27;;;3.35;86.15
34073;BME280;20346;52.702;16.886;2022-11-25T14:55:57;101219.06;;;3.33;86.15
34073;BME280;20346;52.702;16.886;2022-11-25T14:58:49;101221.61;;;3.33;86.17
34073;BME280;20346;52.702;16.886;2022-11-25T15:01:37;101222.41;;;3.30;86.15
34073;BME280;20346;52.702;16.886;2022-11-25T15:04:23;101224.93;;;3.29;86.19
34073;BME280;20346;52.702;16.886;2022-11-25T15:07:18;101226.66;;;3.30;86.23
34073;BME280;20346;52.702;16.886;2022-11-25T15:10:02;101230.11;;;3.32;86.26
34073;BME280;20346;52.702;16.886;2022-11-25T15:12:47;101232.25;;;3.32;86.23
34073;BME280;20346;52.702;16.886;2022-11-25T15:15:31;101237.40;;;3.34;86.25
34073;BME280;20346;52.702;16.886;2022-11-25T15:18:19;101235.26;;;3.33;86.22
34073;BME280;20346;52.702;16.886;2022-11-25T15:21:05;101229.66;;;3.31;86.15
34073;BME280;20346;52.702;16.886;2022-11-25T15:23:50;101229.21;;;3.30;86.18
34073;BME280;20346;52.702;16.886;2022-11-25T15:26:35;101226.17;;;3.27;86.18
34073;BME280;20346;52.702;16.886;2022-11-25T15:29:20;101235.15;;;3.29;86.22
34073;BME280;20346;52.702;16.886;2022-11-25T15:32:08;101242.41;;;3.29;86.23
34073;BME280;20346;52.702;16.886;2022-11-25T15:35:02;101249.24;;;3.30;86.20
34073;BME280;20346;52.702;16.886;2022-11-25T15:37:49;101245.03;;;3.32;86.22
34073;BME280;20346;52.702;16.886;2022-11-25T15:40:39;101247.52;;;3.29;86.16
34073;BME280;20346;52.702;16.886;2022-11-25T15:43:27;101249.66;;;3.30;86.16
34073;BME280;20346;52.702;16.886;2022-11-25T15:46:14;101246.69;;;3.30;86.20
34073;BME280;20346;52.702;16.886;2022-11-25T15:49:03;101249.70;;;3.31;86.20
34073;BME280;20346;52.702;16.886;2022-11-25T15:52:02;101249.24;;;3.30;86.19
34073;BME280;20346;52.702;16.886;2022-11-25T15:54:56;101245.79;;;3.28;86.16
34073;BME280;20346;52.702;16.886;2022-11-25T15:57:48;101245.30;;;3.26;86.15
34073;BME280;20346;52.702;16.886;2022-11-25T16:00:34;101242.19;;;3.20;86.09
34073;BME280;20346;52.702;16.886;2022-11-25T16:03:20;101251.02;;;3.16;86.14
34073;BME280;20346;52.702;16.886;2022-11-25T16:06:25;101251.05;;;3.17;86.26
34073;BME280;20346;52.702;16.886;2022-11-25T16:09:20;101254.89;;;3.17;86.22
34073;BME280;20346;52.702;16.886;2022-11-25T16:12:13;101252.30;;;3.16;86.22
34073;BME280;20346;52.702;16.886;2022-11-25T16:14:55;101256.09;;;3.14;86.22
34073;BME280;20346;52.702;16.886;2022-11-25T16:17:40;101261.66;;;3.15;86.28
34073;BME280;20346;52.702;16.886;2022-11-25T16:20:25;101260.83;;;3.16;86.27
34073;BME280;20346;52.702;16.886;2022-11-25T16:23:12;101257.44;;;3.17;86.25
34073;BME280;20346;52.702;16.886;2022-11-25T16:26:27;101258.64;;;3.14;86.16
34073;BME280;20346;52.702;16.886;2022-11-25T16:28:59;101257.73;;;3.11;86.17
34073;BME280;20346;52.702;16.886;2022-11-25T16:31:44;101258.61;;;3.13;86.30
34073;BME280;20346;52.702;16.886;2022-11-25T16:34:30;101264.20;;;3.15;86.28
34073;BME280;20346;52.702;16.886;2022-11-25T16:37:15;101263.38;;;3.16;86.27
34073;BME280;20346;52.702;16.886;2022-11-25T16:40:00;101268.00;;;3.14;86.22
34073;BME280;20346;52.702;16.886;2022-11-25T16:42:46;101262.44;;;3.13;86.27
34073;BME280;20346;52.702;16.886;2022-11-25T16:45:32;101268.45;;;3.15;86.31